createdAt,value
2022-10-26T00:01:15.036Z,98592.16
2022-10-26T00:03:43.344Z,98585.00
2022-10-26T00:06:12.793Z,98585.09
2022-10-26T00:08:40.563Z,98587.59
2022-10-26T00:11:07.536Z,98591.66
2022-10-26T00:13:35.337Z,98585.50
2022-10-26T00:16:02.196Z,98582.75
2022-10-26T00:18:28.866Z,98581.91
2022-10-26T00:20:55.469Z,98585.69
2022-10-26T00:23:22.114Z,98577.22
2022-10-26T00:25:56.410Z,98581.34
2022-10-26T00:28:23.238Z,98584.84
2022-10-26T00:30:50.137Z,98586.63
2022-10-26T00:33:17.127Z,98586.59
2022-10-26T00:35:46.211Z,98590.88
2022-10-26T00:38:13.381Z,98593.63
2022-10-26T00:40:39.967Z,98595.22
2022-10-26T00:43:14.694Z,98599.41
2022-10-26T00:45:41.254Z,98602.22
2022-10-26T00:48:15.091Z,98600.22
2022-10-26T00:50:45.036Z,98598.50
2022-10-26T00:53:12.536Z,98603.06
2022-10-26T00:55:44.659Z,98607.44
2022-10-26T00:58:12.125Z,98601.13
2022-10-26T01:00:41.120Z,98596.56
2022-10-26T01:03:09.619Z,98601.81
2022-10-26T01:05:42.599Z,98584.97
2022-10-26T01:08:10.086Z,98593.03
2022-10-26T01:10:38.937Z,98580.84
2022-10-26T01:13:06.120Z,98584.38
2022-10-26T01:16:02.968Z,98583.50
2022-10-26T01:18:44.520Z,98578.16
2022-10-26T01:21:43.709Z,98580.78
2022-10-26T01:24:10.151Z,98572.13
2022-10-26T01:29:43.242Z,98568.72
2022-10-26T01:32:14.940Z,98573.75
2022-10-26T01:34:54.345Z,98564.78
2022-10-26T01:37:27.942Z,98557.38
2022-10-26T01:40:09.428Z,98555.59
2022-10-26T01:42:39.756Z,98553.88
2022-10-26T01:45:10.176Z,98556.50
2022-10-26T01:47:38.787Z,98547.72
2022-10-26T01:50:07.357Z,98545.78
2022-10-26T01:52:34.069Z,98545.88
2022-10-26T01:55:08.042Z,98536.13
2022-10-26T01:57:38.482Z,98539.41
2022-10-26T02:00:12.040Z,98540.28
2022-10-26T02:02:54.040Z,98535.97
2022-10-26T02:05:42.393Z,98535.28
2022-10-26T02:08:35.412Z,98529.44
2022-10-26T02:11:16.302Z,98526.75
2022-10-26T02:13:52.776Z,98519.00
2022-10-26T02:16:58.370Z,98525.13
2022-10-26T02:19:24.975Z,98522.69
2022-10-26T02:22:00.528Z,98524.69
2022-10-26T02:24:28.901Z,98521.16
2022-10-26T02:26:56.620Z,98518.38
2022-10-26T02:29:25.197Z,98524.50
2022-10-26T02:31:53.054Z,98533.34
2022-10-26T02:34:24.185Z,98522.91
2022-10-26T02:36:54.999Z,98523.06
2022-10-26T02:39:22.143Z,98524.88
2022-10-26T02:41:49.737Z,98525.00
2022-10-26T02:44:33.509Z,98524.94
2022-10-26T02:47:00.471Z,98525.69
2022-10-26T02:49:27.605Z,98522.06
2022-10-26T02:52:09.485Z,98522.91
2022-10-26T02:54:51.402Z,98518.84
2022-10-26T02:57:24.765Z,98521.97
2022-10-26T02:59:53.609Z,98517.03
2022-10-26T03:02:22.371Z,98525.22
2022-10-26T03:04:51.001Z,98521.19
2022-10-26T03:07:24.068Z,98518.81
2022-10-26T03:09:50.759Z,98524.84
2022-10-26T03:12:17.731Z,98520.56
2022-10-26T03:14:44.309Z,98514.50
2022-10-26T03:17:10.991Z,98510.88
2022-10-26T03:19:37.567Z,98514.34
2022-10-26T03:22:04.104Z,98514.41
2022-10-26T03:24:30.709Z,98511.69
2022-10-26T03:26:59.680Z,98513.22
2022-10-26T03:29:28.685Z,98519.22
2022-10-26T03:31:55.469Z,98507.78
2022-10-26T03:34:22.262Z,98506.94
2022-10-26T03:36:49.156Z,98506.09
2022-10-26T03:39:15.862Z,98506.38
2022-10-26T03:41:42.727Z,98498.47
2022-10-26T03:44:09.431Z,98491.69
2022-10-26T03:46:35.994Z,98490.03
2022-10-26T03:49:02.571Z,98486.59
2022-10-26T03:51:29.250Z,98493.66
2022-10-26T03:53:55.899Z,98492.78
2022-10-26T03:56:22.468Z,98495.47
2022-10-26T03:58:49.232Z,98492.66
2022-10-26T04:01:15.943Z,98497.91
2022-10-26T04:03:42.653Z,98503.25
2022-10-26T04:06:09.305Z,98497.19
2022-10-26T04:08:35.918Z,98507.56
2022-10-26T04:11:04.589Z,98503.16
2022-10-26T04:13:31.901Z,98497.97
2022-10-26T04:15:58.656Z,98497.91
2022-10-26T04:18:25.508Z,98501.28
2022-10-26T04:20:52.206Z,98491.69
2022-10-26T04:23:21.146Z,98493.44
2022-10-26T04:25:47.939Z,98489.91
2022-10-26T04:28:14.900Z,98492.56
2022-10-26T04:30:41.797Z,98489.88
2022-10-26T04:33:08.972Z,98498.59
2022-10-26T04:35:35.595Z,98493.25
2022-10-26T04:38:04.872Z,98493.19
2022-10-26T04:40:33.009Z,98488.75
2022-10-26T04:42:59.806Z,98490.63
2022-10-26T04:45:28.706Z,98479.25
2022-10-26T04:48:02.340Z,98481.03
2022-10-26T04:50:29.046Z,98486.28
2022-10-26T04:52:55.737Z,98481.88
2022-10-26T04:55:22.416Z,98476.63
2022-10-26T04:57:49.217Z,98480.16
2022-10-26T05:00:17.335Z,98474.91
2022-10-26T05:02:44.108Z,98478.41
2022-10-26T05:05:14.126Z,98486.34
2022-10-26T05:07:41.940Z,98482.81
2022-10-26T05:10:09.138Z,98474.13
2022-10-26T05:12:35.718Z,98474.94
2022-10-26T05:15:05.017Z,98475.84
2022-10-26T05:17:34.417Z,98472.31
2022-10-26T05:20:05.938Z,98474.13
2022-10-26T05:22:32.774Z,98480.28
2022-10-26T05:24:59.580Z,98475.84
2022-10-26T05:27:26.249Z,98481.72
2022-10-26T05:29:52.855Z,98475.97
2022-10-26T05:32:19.495Z,98476.88
2022-10-26T05:34:46.135Z,98474.69
2022-10-26T05:37:12.762Z,98481.59
2022-10-26T05:39:39.431Z,98477.78
2022-10-26T05:42:06.052Z,98485.69
2022-10-26T05:44:32.801Z,98487.91
2022-10-26T05:46:59.355Z,98490.53
2022-10-26T05:49:25.942Z,98489.72
2022-10-26T05:51:52.510Z,98485.03
2022-10-26T05:54:19.073Z,98490.63
2022-10-26T05:56:45.962Z,98493.50
2022-10-26T05:59:15.262Z,98493.16
2022-10-26T06:02:03.006Z,98490.69
2022-10-26T06:04:38.952Z,98499.50
2022-10-26T06:07:13.667Z,98489.59
2022-10-26T06:09:41.752Z,98491.78
2022-10-26T06:12:09.705Z,98492.34
2022-10-26T06:14:37.114Z,98493.94
2022-10-26T06:17:11.592Z,98493.59
2022-10-26T06:23:20.901Z,98503.28
2022-10-26T06:26:09.421Z,98501.78
2022-10-26T06:29:03.788Z,98504.53
2022-10-26T06:31:30.430Z,98502.78
2022-10-26T06:34:00.194Z,98503.69
2022-10-26T06:36:28.769Z,98507.19
2022-10-26T06:39:02.817Z,98507.28
2022-10-26T06:41:33.255Z,98510.81
2022-10-26T06:44:00.240Z,98513.38
2022-10-26T06:46:38.841Z,98511.34
2022-10-26T06:49:35.111Z,98508.59
2022-10-26T06:52:03.671Z,98516.31
2022-10-26T06:54:45.255Z,98514.47
2022-10-26T06:57:14.924Z,98514.06
2022-10-26T06:59:50.415Z,98516.84
2022-10-26T07:02:17.234Z,98517.63
2022-10-26T07:04:44.511Z,98519.88
2022-10-26T07:07:18.143Z,98516.03
2022-10-26T07:09:44.741Z,98523.75
2022-10-26T07:12:11.297Z,98521.44
2022-10-26T07:14:37.895Z,98526.41
2022-10-26T07:17:05.906Z,98518.94
2022-10-26T07:19:32.527Z,98522.63
2022-10-26T07:22:02.096Z,98525.06
2022-10-26T07:24:29.310Z,98520.66
2022-10-26T07:26:57.472Z,98515.78
2022-10-26T07:29:25.411Z,98518.81
2022-10-26T07:34:19.389Z,98522.19
2022-10-26T07:36:46.056Z,98525.28
2022-10-26T07:39:12.661Z,98533.16
2022-10-26T07:41:39.218Z,98533.91
2022-10-26T07:44:05.887Z,98534.66
2022-10-26T07:46:32.514Z,98542.09
2022-10-26T07:48:59.215Z,98534.84
2022-10-26T07:51:25.964Z,98537.97
2022-10-26T07:53:52.950Z,98544.78
2022-10-26T07:56:19.605Z,98546.13
2022-10-26T07:58:46.131Z,98545.78
2022-10-26T08:01:15.034Z,98549.59
2022-10-26T08:03:42.263Z,98555.69
2022-10-26T08:06:10.643Z,98561.44
2022-10-26T08:08:37.878Z,98559.66
2022-10-26T08:11:05.771Z,98564.94
2022-10-26T08:13:35.659Z,98559.81
2022-10-26T08:16:05.055Z,98554.47
2022-10-26T08:18:32.530Z,98562.69
2022-10-26T08:21:22.198Z,98562.91
2022-10-26T08:23:56.927Z,98559.03
2022-10-26T08:26:23.930Z,98563.75
2022-10-26T08:28:50.789Z,98555.16
2022-10-26T08:31:17.360Z,98561.13
2022-10-26T08:33:45.070Z,98559.50
2022-10-26T08:36:12.567Z,98560.66
2022-10-26T08:38:39.222Z,98559.38
2022-10-26T08:41:09.632Z,98553.22
2022-10-26T08:43:43.009Z,98559.25
2022-10-26T08:46:27.779Z,98558.47
2022-10-26T08:49:21.953Z,98560.03
2022-10-26T08:51:51.049Z,98555.19
2022-10-26T08:54:28.927Z,98565.53
2022-10-26T08:57:05.957Z,98559.97
2022-10-26T08:59:57.751Z,98570.00
2022-10-26T09:02:24.928Z,98577.25
2022-10-26T09:04:53.470Z,98572.41
2022-10-26T09:07:22.885Z,98573.72
2022-10-26T09:09:58.563Z,98574.75
2022-10-26T09:12:39.405Z,98575.88
2022-10-26T09:15:13.995Z,98574.75
2022-10-26T09:17:46.810Z,98578.06
2022-10-26T09:20:26.943Z,98582.34
2022-10-26T09:23:14.861Z,98578.47
2022-10-26T09:25:41.797Z,98583.50
2022-10-26T09:28:16.397Z,98582.34
2022-10-26T09:30:45.436Z,98586.47
2022-10-26T09:33:16.561Z,98593.38
2022-10-26T09:35:59.453Z,98600.91
2022-10-26T09:38:48.559Z,98603.38
2022-10-26T09:41:38.491Z,98611.06
2022-10-26T09:44:27.389Z,98611.88
2022-10-26T09:47:10.943Z,98604.97
2022-10-26T09:50:07.673Z,98609.66
2022-10-26T09:52:34.215Z,98605.47
2022-10-26T09:55:00.819Z,98613.09
2022-10-26T09:57:27.865Z,98608.13
2022-10-26T09:59:55.737Z,98601.50
2022-10-26T10:02:47.379Z,98613.44
2022-10-26T10:08:27.856Z,98606.34
2022-10-26T10:10:57.172Z,98603.19
2022-10-26T10:13:26.660Z,98604.91
2022-10-26T10:16:07.042Z,98617.22
2022-10-26T10:18:35.187Z,98615.59
2022-10-26T10:21:02.526Z,98610.72
2022-10-26T10:23:34.292Z,98602.38
2022-10-26T10:26:11.376Z,98607.81
2022-10-26T10:28:39.968Z,98607.94
2022-10-26T10:31:20.065Z,98600.75
2022-10-26T10:33:46.986Z,98609.13
2022-10-26T10:36:20.243Z,98592.66
2022-10-26T10:38:49.735Z,98601.94
2022-10-26T10:41:25.743Z,98601.56
2022-10-26T10:43:56.347Z,98591.41
2022-10-26T10:46:27.235Z,98594.00
2022-10-26T10:49:02.929Z,98597.34
2022-10-26T10:51:35.690Z,98604.25
2022-10-26T10:54:03.300Z,98603.16
2022-10-26T10:56:32.782Z,98602.06
2022-10-26T10:59:20.115Z,98601.97
2022-10-26T11:01:58.267Z,98598.31
2022-10-26T11:04:27.525Z,98606.22
2022-10-26T11:07:00.829Z,98602.97
2022-10-26T11:09:32.091Z,98612.97
2022-10-26T11:12:04.037Z,98600.75
2022-10-26T11:14:35.337Z,98616.31
2022-10-26T11:17:22.668Z,98621.28
2022-10-26T11:19:57.813Z,98623.09
2022-10-26T11:22:29.388Z,98627.75
2022-10-26T11:25:03.307Z,98627.59
2022-10-26T11:27:39.696Z,98632.31
2022-10-26T11:30:14.213Z,98623.53
2022-10-26T11:33:31.990Z,98621.16
2022-10-26T11:36:03.229Z,98618.88
2022-10-26T11:38:45.375Z,98617.44
2022-10-26T11:41:30.039Z,98613.59
2022-10-26T11:44:11.454Z,98617.19
2022-10-26T11:46:46.205Z,98615.91
2022-10-26T11:49:28.226Z,98619.56
2022-10-26T11:52:33.179Z,98610.75
2022-10-26T11:55:04.940Z,98609.81
2022-10-26T11:57:37.014Z,98617.38
2022-10-26T12:00:17.772Z,98621.94
2022-10-26T12:02:50.462Z,98608.53
2022-10-26T12:05:36.115Z,98615.00
2022-10-26T12:08:13.789Z,98604.19
2022-10-26T12:10:43.551Z,98611.31
2022-10-26T12:13:36.381Z,98611.28
2022-10-26T12:16:29.216Z,98612.31
2022-10-26T12:19:05.362Z,98609.03
2022-10-26T12:21:33.457Z,98605.59
2022-10-26T12:24:19.754Z,98616.78
2022-10-26T12:26:53.422Z,98621.16
2022-10-26T12:29:44.762Z,98622.09
2022-10-26T12:32:33.245Z,98628.13
2022-10-26T12:35:02.937Z,98636.00
2022-10-26T12:37:37.060Z,98620.47
2022-10-26T12:40:42.190Z,98627.59
2022-10-26T12:43:31.811Z,98627.59
2022-10-26T12:46:13.614Z,98642.34
2022-10-26T12:48:47.694Z,98641.19
2022-10-26T12:51:23.205Z,98642.13
2022-10-26T12:54:04.608Z,98641.03
2022-10-26T12:56:34.822Z,98638.28
2022-10-26T12:59:18.563Z,98642.91
2022-10-26T13:02:23.842Z,98644.63
2022-10-26T13:05:12.149Z,98650.22
2022-10-26T13:07:40.831Z,98641.59
2022-10-26T13:10:13.700Z,98635.81
2022-10-26T13:12:56.646Z,98645.34
2022-10-26T13:15:34.450Z,98646.13
2022-10-26T13:18:06.944Z,98640.88
2022-10-26T13:20:36.285Z,98642.16
2022-10-26T13:23:14.476Z,98642.88
2022-10-26T13:25:41.334Z,98649.50
2022-10-26T13:28:33.109Z,98651.84
2022-10-26T13:30:59.601Z,98640.66
2022-10-26T13:33:36.435Z,98642.38
2022-10-26T13:36:14.819Z,98649.75
2022-10-26T13:38:41.791Z,98641.31
2022-10-26T13:41:19.385Z,98642.03
2022-10-26T13:43:47.955Z,98631.88
2022-10-26T13:46:26.834Z,98632.31
2022-10-26T13:49:00.747Z,98634.53
2022-10-26T13:51:39.477Z,98633.63
2022-10-26T13:54:20.779Z,98639.44
2022-10-26T13:57:12.959Z,98642.91
2022-10-26T13:59:43.949Z,98648.66
2022-10-26T14:02:26.803Z,98650.53
2022-10-26T14:05:05.254Z,98653.38
2022-10-26T14:07:57.300Z,98653.88
2022-10-26T14:10:43.615Z,98650.78
2022-10-26T14:13:15.517Z,98651.28
2022-10-26T14:15:46.706Z,98655.81
2022-10-26T14:18:24.317Z,98666.19
2022-10-26T14:21:06.010Z,98664.06
2022-10-26T14:23:45.172Z,98666.81
2022-10-26T14:26:25.420Z,98679.97
2022-10-26T14:28:58.599Z,98674.66
2022-10-26T14:31:33.102Z,98678.88
2022-10-26T14:34:01.809Z,98673.56
2022-10-26T14:36:43.870Z,98675.63
2022-10-26T14:39:43.848Z,98676.22
2022-10-26T14:42:40.585Z,98676.00
2022-10-26T14:45:29.972Z,98685.94
2022-10-26T14:48:21.861Z,98693.22
2022-10-26T14:51:11.534Z,98694.25
2022-10-26T14:53:40.684Z,98684.19
2022-10-26T14:56:21.990Z,98691.41
2022-10-26T14:58:49.053Z,98689.97
2022-10-26T15:01:32.027Z,98704.66
2022-10-26T15:04:07.755Z,98701.16
2022-10-26T15:06:40.223Z,98707.75
2022-10-26T15:09:07.079Z,98705.50
2022-10-26T15:11:35.145Z,98710.81
2022-10-26T15:14:03.001Z,98712.69
2022-10-26T15:16:40.805Z,98708.16
2022-10-26T15:19:11.019Z,98703.22
2022-10-26T15:21:43.138Z,98709.06
2022-10-26T15:24:38.806Z,98707.00
2022-10-26T15:27:15.785Z,98705.03
2022-10-26T15:29:49.036Z,98716.72
2022-10-26T15:32:29.628Z,98713.88
2022-10-26T15:35:11.960Z,98721.44
2022-10-26T15:37:39.178Z,98716.38
2022-10-26T15:40:06.785Z,98723.59
2022-10-26T15:42:38.305Z,98722.44
2022-10-26T15:45:15.480Z,98728.84
2022-10-26T15:47:42.354Z,98730.97
2022-10-26T15:50:16.329Z,98739.09
2022-10-26T15:52:46.691Z,98734.97
2022-10-26T15:55:17.287Z,98733.75
2022-10-26T15:57:44.336Z,98734.06
2022-10-26T16:00:16.076Z,98741.47
2022-10-26T16:02:44.421Z,98744.53
2022-10-26T16:05:12.951Z,98754.53
2022-10-26T16:07:43.307Z,98758.34
2022-10-26T16:10:17.186Z,98756.53
2022-10-26T16:12:43.810Z,98762.31
2022-10-26T16:15:17.984Z,98767.75
2022-10-26T16:17:45.244Z,98762.31
2022-10-26T16:20:17.340Z,98772.56
2022-10-26T16:22:48.426Z,98777.44
2022-10-26T16:25:17.591Z,98779.59
2022-10-26T16:27:44.476Z,98776.88
2022-10-26T16:30:12.960Z,98776.03
2022-10-26T16:32:40.282Z,98775.41
2022-10-26T16:35:07.327Z,98784.28
2022-10-26T16:37:33.957Z,98783.84
2022-10-26T16:40:00.650Z,98788.78
2022-10-26T16:42:28.570Z,98788.25
2022-10-26T16:44:58.675Z,98797.44
2022-10-26T16:47:28.308Z,98796.28
2022-10-26T16:49:54.935Z,98805.03
2022-10-26T16:52:21.511Z,98808.41
2022-10-26T16:54:48.105Z,98813.13
2022-10-26T16:57:14.800Z,98816.25
2022-10-26T16:59:41.294Z,98822.56
2022-10-26T17:02:08.139Z,98825.09
2022-10-26T17:04:34.869Z,98828.66
2022-10-26T17:07:01.448Z,98827.72
2022-10-26T17:09:28.330Z,98832.66
2022-10-26T17:12:00.948Z,98840.25
2022-10-26T17:14:28.595Z,98843.13
2022-10-26T17:16:55.275Z,98848.09
2022-10-26T17:19:21.854Z,98842.03
2022-10-26T17:21:48.416Z,98844.44
2022-10-26T17:24:15.058Z,98855.56
2022-10-26T17:26:41.986Z,98862.38
2022-10-26T17:31:37.390Z,98872.16
2022-10-26T17:34:04.058Z,98864.53
2022-10-26T17:36:31.877Z,98875.38
2022-10-26T17:39:00.816Z,98882.63
2022-10-26T17:41:28.223Z,98877.47
2022-10-26T17:43:54.905Z,98891.72
2022-10-26T17:46:24.516Z,98894.22
2022-10-26T17:48:58.384Z,98898.19
2022-10-26T17:51:26.455Z,98906.75
2022-10-26T17:53:53.756Z,98899.41
2022-10-26T17:56:20.807Z,98903.72
2022-10-26T17:58:59.554Z,98906.34
2022-10-26T18:01:27.418Z,98917.88
2022-10-26T18:03:54.317Z,98915.16
2022-10-26T18:06:21.390Z,98911.16
2022-10-26T18:08:48.390Z,98909.31
2022-10-26T18:11:23.840Z,98913.66
2022-10-26T18:13:50.738Z,98919.91
2022-10-26T18:16:19.212Z,98922.69
2022-10-26T18:18:50.008Z,98924.09
2022-10-26T18:21:19.097Z,98933.09
2022-10-26T18:23:46.560Z,98929.56
2022-10-26T18:26:20.171Z,98936.13
2022-10-26T18:28:47.138Z,98935.38
2022-10-26T18:31:21.983Z,98940.38
2022-10-26T18:33:48.780Z,98939.28
2022-10-26T18:36:18.137Z,98949.91
2022-10-26T18:38:46.746Z,98949.19
2022-10-26T18:41:15.360Z,98953.59
2022-10-26T18:43:43.619Z,98951.63
2022-10-26T18:46:15.147Z,98961.09
2022-10-26T18:48:44.364Z,98951.16
2022-10-26T18:51:13.674Z,98962.53
2022-10-26T18:53:42.170Z,98964.06
2022-10-26T18:56:11.046Z,98970.09
2022-10-26T18:58:40.306Z,98972.13
2022-10-26T19:01:09.630Z,98976.53
2022-10-26T19:03:36.720Z,98984.47
2022-10-26T19:06:20.479Z,98987.72
2022-10-26T19:08:47.220Z,98988.97
2022-10-26T19:11:16.707Z,98987.44
2022-10-26T19:13:43.701Z,98993.28
2022-10-26T19:16:17.509Z,98991.69
2022-10-26T19:18:56.061Z,98996.13
2022-10-26T19:21:23.146Z,99000.75
2022-10-26T19:23:52.350Z,98998.84
2022-10-26T19:26:21.795Z,98997.91
2022-10-26T19:29:02.466Z,99000.56
2022-10-26T19:31:32.397Z,99002.22
2022-10-26T19:34:00.492Z,99005.06
2022-10-26T19:36:27.455Z,99011.59
2022-10-26T19:38:54.911Z,99013.72
2022-10-26T19:41:26.854Z,99023.38
2022-10-26T19:46:27.424Z,99021.19
2022-10-26T19:48:56.518Z,99028.22
2022-10-26T19:51:24.411Z,99025.50
2022-10-26T19:53:51.074Z,99030.84
2022-10-26T19:56:17.849Z,99040.66
2022-10-26T19:58:45.299Z,99036.31
2022-10-26T20:01:15.024Z,99043.69
2022-10-26T20:03:42.181Z,99039.53
2022-10-26T20:06:13.289Z,99049.09
2022-10-26T20:08:42.226Z,99045.69
2022-10-26T20:11:13.140Z,99045.94
2022-10-26T20:13:43.586Z,99050.56
2022-10-26T20:16:10.979Z,99049.94
2022-10-26T20:18:37.749Z,99053.16
2022-10-26T20:21:09.903Z,99054.69
2022-10-26T20:23:37.223Z,99054.88
2022-10-26T20:26:03.844Z,99058.16
2022-10-26T20:28:30.855Z,99068.19
2022-10-26T20:30:59.433Z,99067.72
2022-10-26T20:33:26.808Z,99064.03
2022-10-26T20:35:58.299Z,99066.88
2022-10-26T20:38:25.574Z,99071.41
2022-10-26T20:40:59.622Z,99080.03
2022-10-26T20:43:27.788Z,99078.88
2022-10-26T20:45:56.158Z,99080.91
2022-10-26T20:48:23.142Z,99085.53
2022-10-26T20:50:56.877Z,99090.53
2022-10-26T20:53:31.567Z,99092.06
2022-10-26T20:56:00.212Z,99091.69
2022-10-26T20:58:38.983Z,99100.81
2022-10-26T21:01:28.233Z,99101.25
2022-10-26T21:03:56.766Z,99104.09
2022-10-26T21:06:24.144Z,99107.75
2022-10-26T21:08:52.316Z,99117.25
2022-10-26T21:11:19.926Z,99112.50
2022-10-26T21:13:48.318Z,99116.69
2022-10-26T21:16:16.087Z,99113.44
2022-10-26T21:18:43.083Z,99117.09
2022-10-26T21:21:10.129Z,99110.19
2022-10-26T21:23:39.607Z,99114.75
2022-10-26T21:26:07.576Z,99117.66
2022-10-26T21:28:39.474Z,99117.56
2022-10-26T21:31:09.114Z,99119.13
2022-10-26T21:33:35.960Z,99119.19
2022-10-26T21:36:04.007Z,99120.56
2022-10-26T21:38:32.550Z,99124.13
2022-10-26T21:41:07.494Z,99118.38
2022-10-26T21:43:35.772Z,99129.00
2022-10-26T21:46:03.742Z,99131.53
2022-10-26T21:48:31.866Z,99134.84
2022-10-26T21:50:58.725Z,99133.06
2022-10-26T21:53:26.954Z,99134.88
2022-10-26T21:56:05.057Z,99134.72
2022-10-26T21:58:32.633Z,99138.16
2022-10-26T22:01:13.452Z,99143.09
2022-10-26T22:03:41.187Z,99139.81
2022-10-26T22:06:09.661Z,99138.50
2022-10-26T22:08:37.150Z,99149.94
2022-10-26T22:11:10.534Z,99142.88
2022-10-26T22:13:39.930Z,99146.38
2022-10-26T22:16:13.373Z,99154.03
2022-10-26T22:18:43.150Z,99156.09
2022-10-26T22:21:10.978Z,99152.72
2022-10-26T22:23:39.630Z,99156.97
2022-10-26T22:26:11.050Z,99154.97
2022-10-26T22:28:42.468Z,99157.88
2022-10-26T22:31:23.319Z,99147.28
2022-10-26T22:33:54.601Z,99155.53
2022-10-26T22:36:22.066Z,99164.69
2022-10-26T22:38:49.932Z,99160.25
2022-10-26T22:41:17.320Z,99160.25
2022-10-26T22:43:44.021Z,99163.72
2022-10-26T22:46:20.946Z,99163.72
2022-10-26T22:48:47.633Z,99166.47
2022-10-26T22:51:17.682Z,99165.78
2022-10-26T22:53:44.530Z,99163.53
2022-10-26T22:56:12.907Z,99172.31
2022-10-26T22:58:40.571Z,99176.22
2022-10-26T23:01:09.168Z,99172.41
2022-10-26T23:03:36.301Z,99179.75
2022-10-26T23:06:04.336Z,99181.78
2022-10-26T23:08:31.018Z,99172.31
2022-10-26T23:11:02.068Z,99181.22
2022-10-26T23:13:29.308Z,99173.53
2022-10-26T23:15:56.652Z,99170.03
2022-10-26T23:18:23.530Z,99180.00
2022-10-26T23:20:51.301Z,99180.00
2022-10-26T23:23:18.623Z,99181.84
2022-10-26T23:25:45.274Z,99187.72
2022-10-26T23:28:12.115Z,99191.59
2022-10-26T23:30:38.753Z,99180.56
2022-10-26T23:33:05.408Z,99192.09
2022-10-26T23:35:32.133Z,99198.72
2022-10-26T23:37:59.761Z,99198.81
2022-10-26T23:40:27.303Z,99207.13
2022-10-26T23:42:54.081Z,99208.22
2022-10-26T23:45:21.338Z,99220.69
2022-10-26T23:47:48.618Z,99218.13
2022-10-26T23:50:15.753Z,99214.66
2022-10-26T23:52:46.058Z,99214.88
2022-10-26T23:55:12.650Z,99211.56
2022-10-26T23:57:40.142Z,99211.72
